Small World of Warcraft Small World of Warcraft

Historique des parties

Historique des parties pour chesaning
Jeu: 

Historique des parties
[15 derniers jours] | [2014 (14)] | [2013 (13)] | [2012 (2)] | [2011 (6)] | [2010 (25)] | [2009 (416)] | [2008 (72)] | [2007 (3)] 
Date score de chesaning Autres joueurs et scores Variante Partie classée
23/05/2009 128 jjosephson(164) - detters(139) - kamala(82) u2 x
23/05/2009 157 DoveBar(139) - kinetic(131) - *player447885(129) u2 x
22/05/2009 133 *player479560(162) - Pacific Crest Trail(146) - soffan(108) u2 x
22/05/2009 137 TtoRaddict(38) - *player545646(8) u2 x
22/05/2009 150 *player503850(198) - jjosephson(188) - jowribbit(141) u2 x
22/05/2009 167 *player468706(155) - cwmills(100) - tomklink(91) u2 x
22/05/2009 132 silverfox47(113) - goldeneye(113) - lighthouse(72) u2 x
22/05/2009 114 toddley(161) - tlbhoutx(142) - FigurSK8er(74) u2 x
22/05/2009 176 Armigilion(156) - FigurSK8er(130) - *player468706(129) u2 x
21/05/2009 144 Spieler398586(216) - *player96175(131) - *player489220(65) u2 x
21/05/2009 134 *player528354(128) - flannel king(117) - Hurtig(33) u2 x
21/05/2009 104 DoveBar(219) - 301 cornell(156) - *player407826(111) u2 x
20/05/2009 93 justme2009(161) - Lamjul(161) - Hurtig(115) u2 x
19/05/2009 192 *player228957(186) - player458988(157) - slipNslide(137) u2 x
19/05/2009 110 bfogartyjr(158) - jennsta(141) - *player532040(122) u2 x
18/05/2009 180 eminderhoud(126) - Normand(117) - mrsliberty(104) u2 x
18/05/2009 165 makingtracks(191) - miramonster(148) - *player90616(117) u2 x
17/05/2009 131 *player532040(121) - wmh68(101) - trebby2121(-3) u2 x
17/05/2009 140 trebby2121(201) - 1after909(199) - Deenosaure(106) u2 x
16/05/2009 154 lazio(178) - Maria-Theresia(148) - 1after909(115) u2 x
Pages (21): [ «  <  5  6  7  8  9  10  11  12  13  14  15  16  17  18  19  20  >  » ]